Freedom of the Seas — C6UZ7 — position and weather

sailwx.info

Track history (hours):
 
Tides and Currents Weather Stations Pressure Air Temp Water Temp Dewpoint Dewpoint Depression Visibility Wind Speed Wind Dir Waves Ship Positions

Freedom of the Seas

Last reported at 2017-Nov-24 03:00 UTC. Time now 2017-Nov-24 09:33 UTC.
Position N 21°30' W 086°00'.

Length 339 m; draft 9 m.

Type: Passenger vessel. MMSI: 309906000.

Wind from 290 at 21 knots

Barometer 1013.1 mb
Air temperature 25.0 ° C
Visibility: greater than 10.8 NM
Dewpoint 20.5 ° C
Water temperature 28.0 ° C

Date/timePositionNaut miles runAvg speedWind from/ knotsBaromVisibWave heightAir tempDewpointWater temp
2017-Nov-24 03:00N 21°30' W 086°00'7517.8 290 / 211013.110.8 25.020.528.0
2017-Nov-23 22:47N 20°36' W 086°56'415.2
2017-Nov-23 22:30N 20°33' W 086°58'4 7.2
2017-Nov-23 21:59N 20°29' W 086°59'0 0.0
2017-Nov-23 21:25N 20°29' W 086°59'0 0.0
2017-Nov-23 20:58N 20°29' W 086°59'0 0.0
2017-Nov-23 20:19N 20°29' W 086°59'0 0.0
2017-Nov-23 19:58N 20°29' W 086°59'0 0.0
2017-Nov-23 19:28N 20°29' W 086°59'0 0.0
2017-Nov-23 18:55N 20°29' W 086°59'0 0.0
2017-Nov-23 18:28N 20°29' W 086°59'0 0.0
2017-Nov-23 17:55N 20°29' W 086°59'0 0.0
2017-Nov-23 17:28N 20°29' W 086°59'0 0.0
2017-Nov-23 16:58N 20°29' W 086°59'0 0.0
2017-Nov-23 16:28N 20°29' W 086°59'0 0.0
2017-Nov-23 15:58N 20°29' W 086°59'0 0.0
2017-Nov-23 15:28N 20°29' W 086°59'0 0.0
2017-Nov-23 14:55N 20°29' W 086°59'0 0.0
2017-Nov-23 14:25N 20°29' W 086°59'0 0.0
2017-Nov-23 13:55N 20°29' W 086°59'0 0.0
2017-Nov-23 13:28N 20°29' W 086°59'0 0.0
2017-Nov-23 12:59N 20°29' W 086°59'1 1.3
2017-Nov-23 12:30N 20°29' W 086°59'3 5.6
2017-Nov-23 12:00N 20°27' W 087°02'5 9.5
2017-Nov-23 11:30N 20°23' W 087°04'7710.3
2017-Nov-23 04:00N 19°06' W 087°06'227 8.7 1014.010.8 26.019.928.5
2017-Nov-22 02:00N 19°06' W 083°06'100 4.4 020 / 151011.810.8 27.024.128.7
2017-Nov-21 03:00N 20°42' W 083°36'20612.1 040 / 141015.110.8 26.019.928.0
2017-Nov-20 10:00N 23°48' W 082°00'11419.0 020 / 111016.010.8 24.017.726.0
2017-Nov-20 04:00N 24°54' W 080°18'5916.8 320 / 201015.310.8 24.019.427.0
2017-Nov-20 00:30N 25°50' W 079°57'917.2
2017-Nov-20 00:00N 25°58' W 079°57'815.7
2017-Nov-19 23:30N 26°04' W 080°03'4 7.6
2017-Nov-19 23:00N 26°05' W 080°07'1 0.9
2017-Nov-19 22:23N 26°05' W 080°07'0 0.0
2017-Nov-19 21:53N 26°05' W 080°07'0 0.0
2017-Nov-19 21:23N 26°05' W 080°07'0 0.0
2017-Nov-19 20:38N 26°05' W 080°07'0 0.0
2017-Nov-19 20:23N 26°05' W 080°07'0 0.0
2017-Nov-19 19:53N 26°05' W 080°07'0 0.0
2017-Nov-19 19:23N 26°05' W 080°07'0 0.0
2017-Nov-19 18:56N 26°05' W 080°07'0 0.0
2017-Nov-19 18:26N 26°05' W 080°07'0 0.0
2017-Nov-19 17:56N 26°05' W 080°07'0 0.0
2017-Nov-19 17:26N 26°05' W 080°07'0 0.0
2017-Nov-19 16:56N 26°05' W 080°07'0 0.0
2017-Nov-19 16:29N 26°05' W 080°07'0 0.0
2017-Nov-19 15:56N 26°05' W 080°07'0 0.0
2017-Nov-19 15:29N 26°05' W 080°07'0 0.0
2017-Nov-19 14:59N 26°05' W 080°07'0 0.0
2017-Nov-19 14:29N 26°05' W 080°07'0 0.0
2017-Nov-19 13:59N 26°05' W 080°07'0 0.0
2017-Nov-19 13:29N 26°05' W 080°07'0 0.0
2017-Nov-19 12:59N 26°05' W 080°07'0 0.0
2017-Nov-19 12:29N 26°05' W 080°07'0 0.0
2017-Nov-19 11:59N 26°05' W 080°07'0 0.0
2017-Nov-19 11:29N 26°05' W 080°07'0 0.0
2017-Nov-19 10:59N 26°05' W 080°07'0 0.0
2017-Nov-19 10:29N 26°05' W 080°07'0 0.0
2017-Nov-19 10:00N 26°05' W 080°07'1 1.3
2017-Nov-19 09:30N 26°06' W 080°07'4 8.8
2017-Nov-19 09:00N 26°05' W 080°02'611.9
2017-Nov-19 08:30N 25°59' W 080°00'612.3
2017-Nov-19 08:00N 25°54' W 079°58'612.6
2017-Nov-19 07:30N 25°48' W 079°55'714.4
2017-Nov-19 07:00N 25°41' W 079°53'714.9
2017-Nov-19 06:30N 25°33' W 079°52'814.9
2017-Nov-19 06:00N 25°26' W 079°49'  
2017-Nov-15 02:00N 20°36' W 086°30'2318.4 030 / 281012.910.8 27.022.628.0
2017-Nov-15 00:45N 20°37' W 086°54'518.2
2017-Nov-15 00:30N 20°34' W 086°58'5 9.5
2017-Nov-14 23:58N 20°29' W 086°59'0 0.0
2017-Nov-14 23:28N 20°29' W 086°59'0 0.0
2017-Nov-14 22:52N 20°29' W 086°59'0 0.0
2017-Nov-14 22:19N 20°29' W 086°59'0 0.0
2017-Nov-14 21:58N 20°29' W 086°59'0 0.0
2017-Nov-14 21:28N 20°29' W 086°59'0 0.0
2017-Nov-14 20:58N 20°29' W 086°59'0 0.0
2017-Nov-14 20:28N 20°29' W 086°59'0 0.0
2017-Nov-14 19:58N 20°29' W 086°59'0 0.0
2017-Nov-14 19:28N 20°29' W 086°59'0 0.0
2017-Nov-14 18:58N 20°29' W 086°59'0 0.0
2017-Nov-14 18:28N 20°29' W 086°59'0 0.0
2017-Nov-14 17:58N 20°29' W 086°59'0 0.0
2017-Nov-14 17:28N 20°29' W 086°59'0 0.0
2017-Nov-14 16:55N 20°29' W 086°59'0 0.0
2017-Nov-14 16:25N 20°29' W 086°59'0 0.0
2017-Nov-14 15:58N 20°29' W 086°59'0 0.4
2017-Nov-14 15:30N 20°29' W 086°59'2 4.3
2017-Nov-14 15:00N 20°31' W 086°58'610.7
2017-Nov-14 14:26N 20°36' W 086°55'  
Track history (hours):
 
Tides and Currents Weather Stations Pressure Air Temp Water Temp Dewpoint Dewpoint Depression Visibility Wind Speed Wind Dir Waves Ship Positions

Freedom of the Seas

Last reported at 2017-Nov-24 03:00 UTC. Time now 2017-Nov-24 09:33 UTC.
Position N 21°30' W 086°00'.

Length 339 m; draft 9 m.

Type: Passenger vessel. MMSI: 309906000.

Wind from 290 at 21 knots

Barometer 1013.1 mb
Air temperature 25.0 ° C
Visibility: greater than 10.8 NM
Dewpoint 20.5 ° C
Water temperature 28.0 ° C

Date/timePositionNaut miles runAvg speedWind from/ knotsBaromVisibWave heightAir tempDewpointWater temp
2017-Nov-24 03:00N 21°30' W 086°00'7517.8 290 / 211013.110.8 25.020.528.0
2017-Nov-23 22:47N 20°36' W 086°56'415.2
2017-Nov-23 22:30N 20°33' W 086°58'4 7.2
2017-Nov-23 21:59N 20°29' W 086°59'0 0.0
2017-Nov-23 21:25N 20°29' W 086°59'0 0.0
2017-Nov-23 20:58N 20°29' W 086°59'0 0.0
2017-Nov-23 20:19N 20°29' W 086°59'0 0.0
2017-Nov-23 19:58N 20°29' W 086°59'0 0.0
2017-Nov-23 19:28N 20°29' W 086°59'0 0.0
2017-Nov-23 18:55N 20°29' W 086°59'0 0.0
2017-Nov-23 18:28N 20°29' W 086°59'0 0.0
2017-Nov-23 17:55N 20°29' W 086°59'0 0.0
2017-Nov-23 17:28N 20°29' W 086°59'0 0.0
2017-Nov-23 16:58N 20°29' W 086°59'0 0.0
2017-Nov-23 16:28N 20°29' W 086°59'0 0.0
2017-Nov-23 15:58N 20°29' W 086°59'0 0.0
2017-Nov-23 15:28N 20°29' W 086°59'0 0.0
2017-Nov-23 14:55N 20°29' W 086°59'0 0.0
2017-Nov-23 14:25N 20°29' W 086°59'0 0.0
2017-Nov-23 13:55N 20°29' W 086°59'0 0.0
2017-Nov-23 13:28N 20°29' W 086°59'0 0.0
2017-Nov-23 12:59N 20°29' W 086°59'1 1.3
2017-Nov-23 12:30N 20°29' W 086°59'3 5.6
2017-Nov-23 12:00N 20°27' W 087°02'5 9.5
2017-Nov-23 11:30N 20°23' W 087°04'7710.3
2017-Nov-23 04:00N 19°06' W 087°06'227 8.7 1014.010.8 26.019.928.5
2017-Nov-22 02:00N 19°06' W 083°06'100 4.4 020 / 151011.810.8 27.024.128.7
2017-Nov-21 03:00N 20°42' W 083°36'20612.1 040 / 141015.110.8 26.019.928.0
2017-Nov-20 10:00N 23°48' W 082°00'11419.0 020 / 111016.010.8 24.017.726.0
2017-Nov-20 04:00N 24°54' W 080°18'5916.8 320 / 201015.310.8 24.019.427.0
2017-Nov-20 00:30N 25°50' W 079°57'917.2
2017-Nov-20 00:00N 25°58' W 079°57'815.7
2017-Nov-19 23:30N 26°04' W 080°03'4 7.6
2017-Nov-19 23:00N 26°05' W 080°07'1 0.9
2017-Nov-19 22:23N 26°05' W 080°07'0 0.0
2017-Nov-19 21:53N 26°05' W 080°07'0 0.0
2017-Nov-19 21:23N 26°05' W 080°07'0 0.0
2017-Nov-19 20:38N 26°05' W 080°07'0 0.0
2017-Nov-19 20:23N 26°05' W 080°07'0 0.0
2017-Nov-19 19:53N 26°05' W 080°07'0 0.0
2017-Nov-19 19:23N 26°05' W 080°07'0 0.0
2017-Nov-19 18:56N 26°05' W 080°07'0 0.0
2017-Nov-19 18:26N 26°05' W 080°07'0 0.0
2017-Nov-19 17:56N 26°05' W 080°07'0 0.0
2017-Nov-19 17:26N 26°05' W 080°07'0 0.0
2017-Nov-19 16:56N 26°05' W 080°07'0 0.0
2017-Nov-19 16:29N 26°05' W 080°07'0 0.0
2017-Nov-19 15:56N 26°05' W 080°07'0 0.0
2017-Nov-19 15:29N 26°05' W 080°07'0 0.0
2017-Nov-19 14:59N 26°05' W 080°07'0 0.0
2017-Nov-19 14:29N 26°05' W 080°07'0 0.0
2017-Nov-19 13:59N 26°05' W 080°07'0 0.0
2017-Nov-19 13:29N 26°05' W 080°07'0 0.0
2017-Nov-19 12:59N 26°05' W 080°07'0 0.0
2017-Nov-19 12:29N 26°05' W 080°07'0 0.0
2017-Nov-19 11:59N 26°05' W 080°07'0 0.0
2017-Nov-19 11:29N 26°05' W 080°07'0 0.0
2017-Nov-19 10:59N 26°05' W 080°07'0 0.0
2017-Nov-19 10:29N 26°05' W 080°07'0 0.0
2017-Nov-19 10:00N 26°05' W 080°07'1 1.3
2017-Nov-19 09:30N 26°06' W 080°07'4 8.8
2017-Nov-19 09:00N 26°05' W 080°02'611.9
2017-Nov-19 08:30N 25°59' W 080°00'612.3
2017-Nov-19 08:00N 25°54' W 079°58'612.6
2017-Nov-19 07:30N 25°48' W 079°55'714.4
2017-Nov-19 07:00N 25°41' W 079°53'714.9
2017-Nov-19 06:30N 25°33' W 079°52'814.9
2017-Nov-19 06:00N 25°26' W 079°49'  
2017-Nov-15 02:00N 20°36' W 086°30'2318.4 030 / 281012.910.8 27.022.628.0
2017-Nov-15 00:45N 20°37' W 086°54'518.2
2017-Nov-15 00:30N 20°34' W 086°58'5 9.5
2017-Nov-14 23:58N 20°29' W 086°59'0 0.0
2017-Nov-14 23:28N 20°29' W 086°59'0 0.0
2017-Nov-14 22:52N 20°29' W 086°59'0 0.0
2017-Nov-14 22:19N 20°29' W 086°59'0 0.0
2017-Nov-14 21:58N 20°29' W 086°59'0 0.0
2017-Nov-14 21:28N 20°29' W 086°59'0 0.0
2017-Nov-14 20:58N 20°29' W 086°59'0 0.0
2017-Nov-14 20:28N 20°29' W 086°59'0 0.0
2017-Nov-14 19:58N 20°29' W 086°59'0 0.0
2017-Nov-14 19:28N 20°29' W 086°59'0 0.0
2017-Nov-14 18:58N 20°29' W 086°59'0 0.0
2017-Nov-14 18:28N 20°29' W 086°59'0 0.0
2017-Nov-14 17:58N 20°29' W 086°59'0 0.0
2017-Nov-14 17:28N 20°29' W 086°59'0 0.0
2017-Nov-14 16:55N 20°29' W 086°59'0 0.0
2017-Nov-14 16:25N 20°29' W 086°59'0 0.0
2017-Nov-14 15:58N 20°29' W 086°59'0 0.4
2017-Nov-14 15:30N 20°29' W 086°59'2 4.3
2017-Nov-14 15:00N 20°31' W 086°58'610.7
2017-Nov-14 14:26N 20°36' W 086°55'  

Dump ship's entire track history